VTSP/HKT METAR and TAF weather

Enter ICAO airport designator
Station Type Date Time Source
VTSP METAR 2019/06/16 21:00 UTC NOAA

VTSP 162100Z 24004KT 180V290 8000 FEW020 29/24 Q1009 NOSIG


Station Type Date Time Source
VTSP Decoded METAR 2019/06/16 21:00 UTC NOAA

Phuket Airport, Thailand (VTSP) 08-07N 098-19E 10M
Jun 16, 2019 - 05:00 PM EDT / 2019.06.16 2100 UTC
Wind: from the WSW (240 degrees) at 5 MPH (4 KT) (direction variable):0
Visibility: 4 mile(s):0
Sky conditions: mostly clear
Temperature: 84 F (29 C)
Dew Point: 75 F (24 C)
Relative Humidity: 74%
Pressure (altimeter): 29.80 in. Hg (1009 hPa)
ob: VTSP 162100Z 24004KT 180V290 8000 FEW020 29/24 Q1009 NOSIG
cycle: 21

Station Type Date Time Source
VTSP TAF 2019/06/16 18:36 UTC NOAA

TAF VTSP 161700Z 1618/1724 00000KT 9999 SCT020
TEMPO 1700/1702 26010KT
TEMPO 1706/1712 26015G25KT 3000 RA FEW018CB SCT020 BKN100
TEMPO 1714/1716 26010KT

Example: see airport list